createdAt,value
2018-12-16T00:00:28.980Z,78.05
2018-12-16T00:01:28.910Z,77.94
2018-12-16T00:02:28.897Z,77.52
2018-12-16T00:03:28.916Z,77.21
2018-12-16T00:04:28.880Z,77.00
2018-12-16T00:05:28.860Z,77.62
2018-12-16T00:06:28.879Z,77.52
2018-12-16T00:07:28.854Z,77.94
2018-12-16T00:08:28.863Z,77.62
2018-12-16T00:09:28.819Z,77.94
2018-12-16T00:10:28.813Z,77.94
2018-12-16T00:11:28.800Z,77.52
2018-12-16T00:12:28.812Z,77.73
2018-12-16T00:13:28.864Z,77.76
2018-12-16T00:14:28.776Z,77.73
2018-12-16T00:15:28.770Z,78.05
2018-12-16T00:16:28.754Z,78.05
2018-12-16T00:17:28.753Z,77.84
2018-12-16T00:18:28.763Z,77.62
2018-12-16T00:19:28.817Z,77.84
2018-12-16T00:20:28.716Z,77.94
2018-12-16T00:21:28.703Z,78.16
2018-12-16T00:22:29.990Z,77.52
2018-12-16T00:23:28.872Z,77.31
2018-12-16T00:24:28.685Z,77.62
2018-12-16T00:25:28.669Z,77.07
2018-12-16T00:26:28.672Z,76.86
2018-12-16T00:27:28.647Z,76.68
2018-12-16T00:28:28.679Z,76.86
2018-12-16T00:29:28.649Z,76.12
2018-12-16T00:30:28.648Z,75.91
2018-12-16T00:31:28.605Z,75.70
2018-12-16T00:32:28.601Z,75.70
2018-12-16T00:33:28.618Z,76.23
2018-12-16T00:34:28.572Z,76.12
2018-12-16T00:35:28.610Z,76.09
2018-12-16T00:36:28.554Z,75.91
2018-12-16T00:37:28.552Z,75.98
2018-12-16T00:38:28.571Z,75.87
2018-12-16T00:39:28.526Z,76.19
2018-12-16T00:40:28.518Z,76.29
2018-12-16T00:41:28.513Z,76.23
2018-12-16T00:42:28.592Z,76.33
2018-12-16T00:43:28.512Z,76.23
2018-12-16T00:44:28.468Z,76.01
2018-12-16T00:45:28.468Z,76.09
2018-12-16T00:46:28.456Z,76.12
2018-12-16T00:47:28.446Z,76.19
2018-12-16T00:48:28.481Z,76.29
2018-12-16T00:49:28.440Z,76.19
2018-12-16T00:50:28.410Z,75.87
2018-12-16T00:51:28.410Z,75.67
2018-12-16T00:52:28.390Z,75.67
2018-12-16T00:53:28.425Z,75.67
2018-12-16T00:54:28.380Z,75.67
2018-12-16T00:55:28.431Z,75.67
2018-12-16T00:56:28.356Z,75.77
2018-12-16T00:57:28.343Z,75.87
2018-12-16T00:58:28.371Z,75.46
2018-12-16T00:59:28.321Z,75.46
2018-12-16T01:00:28.306Z,75.04
2018-12-16T01:01:28.320Z,75.46
2018-12-16T01:02:28.298Z,75.46
2018-12-16T01:03:28.322Z,75.67
2018-12-16T01:04:28.277Z,75.14
2018-12-16T01:05:28.269Z,75.00
2018-12-16T01:06:28.252Z,74.82
2018-12-16T01:07:28.283Z,75.35
2018-12-16T01:08:28.265Z,75.67
2018-12-16T01:09:28.221Z,75.67
2018-12-16T01:10:28.220Z,75.77
2018-12-16T01:11:28.208Z,75.63
2018-12-16T01:12:28.188Z,75.67
2018-12-16T01:13:28.222Z,75.98
2018-12-16T01:14:28.170Z,75.98
2018-12-16T01:15:28.172Z,75.77
2018-12-16T01:16:28.148Z,75.24
2018-12-16T01:17:28.141Z,75.77
2018-12-16T01:18:28.168Z,75.74
2018-12-16T01:19:28.145Z,75.24
2018-12-16T01:20:28.116Z,75.35
2018-12-16T01:21:28.107Z,75.24
2018-12-16T01:22:28.090Z,75.24
2018-12-16T01:23:28.123Z,75.24
2018-12-16T01:24:28.070Z,75.10
2018-12-16T01:25:28.085Z,74.90
2018-12-16T01:26:28.048Z,74.68
2018-12-16T01:27:28.046Z,75.46
2018-12-16T01:28:28.066Z,75.21
2018-12-16T01:29:28.053Z,75.32
2018-12-16T01:30:28.028Z,75.00
2018-12-16T01:31:28.045Z,74.90
2018-12-16T01:32:27.986Z,74.90
2018-12-16T01:33:28.023Z,74.79
2018-12-16T01:34:27.983Z,74.90
2018-12-16T01:35:27.970Z,74.58
2018-12-16T01:36:27.948Z,75.10
2018-12-16T01:37:27.978Z,74.68
2018-12-16T01:38:27.979Z,74.79
2018-12-16T01:39:27.921Z,74.68
2018-12-16T01:40:27.917Z,74.79
2018-12-16T01:41:27.910Z,74.68
2018-12-16T01:42:27.889Z,74.68
2018-12-16T01:43:27.944Z,74.58
2018-12-16T01:44:27.875Z,74.90
2018-12-16T01:45:27.865Z,75.00
2018-12-16T01:46:27.853Z,74.68
2018-12-16T01:47:27.848Z,75.00
2018-12-16T01:48:27.870Z,74.90
2018-12-16T01:49:27.866Z,75.21
2018-12-16T01:50:27.830Z,74.90
2018-12-16T01:51:27.793Z,74.68
2018-12-16T01:52:27.793Z,74.68
2018-12-16T01:53:27.818Z,75.21
2018-12-16T01:54:27.768Z,75.00
2018-12-16T01:55:27.759Z,75.21
2018-12-16T01:56:27.768Z,75.10
2018-12-16T01:57:27.739Z,74.68
2018-12-16T01:58:27.761Z,74.68
2018-12-16T01:59:27.718Z,74.58
2018-12-16T02:00:27.709Z,75.32
2018-12-16T02:01:27.723Z,75.42
2018-12-16T02:02:27.721Z,75.21
2018-12-16T02:03:27.746Z,75.32
2018-12-16T02:04:27.670Z,75.32
2018-12-16T02:05:27.656Z,75.10
2018-12-16T02:06:27.650Z,75.00
2018-12-16T02:07:27.644Z,75.42
2018-12-16T02:08:27.689Z,75.32
2018-12-16T02:09:27.623Z,75.32
2018-12-16T02:10:27.610Z,75.00
2018-12-16T02:11:27.595Z,75.21
2018-12-16T02:12:27.599Z,75.21
2018-12-16T02:13:27.615Z,75.21
2018-12-16T02:14:27.615Z,75.32
2018-12-16T02:15:27.571Z,75.32
2018-12-16T02:16:27.546Z,75.32
2018-12-16T02:17:27.541Z,75.32
2018-12-16T02:18:27.564Z,75.32
2018-12-16T02:19:27.523Z,75.00
2018-12-16T02:20:27.539Z,75.21
2018-12-16T02:21:27.505Z,74.90
2018-12-16T02:22:27.489Z,75.32
2018-12-16T02:23:27.522Z,75.42
2018-12-16T02:24:27.469Z,75.32
2018-12-16T02:25:27.461Z,75.00
2018-12-16T02:26:27.532Z,75.00
2018-12-16T02:27:27.447Z,75.42
2018-12-16T02:28:27.466Z,75.63
2018-12-16T02:29:27.427Z,75.74
2018-12-16T02:30:27.411Z,75.42
2018-12-16T02:31:27.393Z,75.21
2018-12-16T02:32:27.444Z,75.28
2018-12-16T02:33:27.374Z,75.07
2018-12-16T02:34:27.364Z,74.90
2018-12-16T02:35:27.359Z,74.68
2018-12-16T02:36:27.359Z,74.79
2018-12-16T02:37:27.370Z,75.00
2018-12-16T02:38:27.343Z,75.10
2018-12-16T02:39:27.341Z,74.68
2018-12-16T02:40:27.305Z,75.10
2018-12-16T02:41:27.294Z,74.90
2018-12-16T02:42:27.318Z,75.18
2018-12-16T02:43:27.278Z,74.86
2018-12-16T02:44:27.293Z,75.32
2018-12-16T02:45:27.261Z,75.10
2018-12-16T02:46:27.256Z,75.32
2018-12-16T02:47:27.274Z,75.42
2018-12-16T02:48:27.229Z,75.32
2018-12-16T02:49:27.214Z,75.60
2018-12-16T02:50:27.234Z,75.84
2018-12-16T02:51:27.200Z,75.84
2018-12-16T02:52:27.219Z,75.49
2018-12-16T02:53:27.176Z,75.63
2018-12-16T02:54:27.174Z,75.52
2018-12-16T02:55:27.158Z,75.00
2018-12-16T02:56:27.174Z,75.32
2018-12-16T02:57:27.175Z,75.32
2018-12-16T02:58:27.129Z,75.21
2018-12-16T02:59:27.124Z,75.32
2018-12-16T03:00:27.109Z,75.52
2018-12-16T03:01:27.108Z,75.60
2018-12-16T03:02:27.146Z,75.52
2018-12-16T03:03:27.087Z,75.32
2018-12-16T03:04:27.095Z,75.18
2018-12-16T03:05:27.120Z,75.38
2018-12-16T03:06:27.063Z,75.38
2018-12-16T03:07:27.095Z,75.10
2018-12-16T03:08:27.051Z,75.49
2018-12-16T03:09:27.076Z,75.28
2018-12-16T03:10:27.023Z,75.00
2018-12-16T03:11:27.010Z,75.42
2018-12-16T03:12:27.036Z,75.60
2018-12-16T03:13:27.028Z,75.21
2018-12-16T03:14:26.986Z,75.38
2018-12-16T03:15:26.972Z,75.70
2018-12-16T03:16:26.973Z,75.21
2018-12-16T03:17:27.007Z,75.42
2018-12-16T03:18:26.941Z,75.95
2018-12-16T03:19:26.923Z,76.05
2018-12-16T03:20:26.917Z,75.84
2018-12-16T03:21:27.018Z,75.63
2018-12-16T03:22:26.944Z,75.42
2018-12-16T03:23:26.882Z,75.52
2018-12-16T03:24:26.873Z,75.60
2018-12-16T03:25:26.900Z,75.63
2018-12-16T03:26:26.897Z,75.63
2018-12-16T03:27:27.023Z,75.63
2018-12-16T03:28:26.835Z,75.38
2018-12-16T03:29:26.831Z,75.63
2018-12-16T03:30:26.830Z,75.74
2018-12-16T03:31:26.854Z,75.38
2018-12-16T03:32:26.804Z,75.70
2018-12-16T03:33:26.787Z,75.74
2018-12-16T03:34:26.770Z,75.95
2018-12-16T03:35:26.778Z,75.60
2018-12-16T03:36:26.786Z,75.28
2018-12-16T03:37:26.736Z,75.28
2018-12-16T03:38:26.751Z,75.28
2018-12-16T03:39:26.708Z,75.28
2018-12-16T03:40:26.699Z,75.28
2018-12-16T03:41:26.722Z,75.38
2018-12-16T03:42:26.686Z,75.42
2018-12-16T03:43:26.695Z,75.38
2018-12-16T03:44:26.665Z,75.18
2018-12-16T03:45:26.654Z,75.42
2018-12-16T03:46:26.682Z,75.49
2018-12-16T03:47:26.630Z,75.49
2018-12-16T03:48:26.622Z,75.49
2018-12-16T03:49:26.646Z,75.38
2018-12-16T03:50:26.606Z,75.38
2018-12-16T03:51:26.621Z,75.28
2018-12-16T03:52:26.588Z,75.49
2018-12-16T03:53:26.575Z,75.49
2018-12-16T03:54:26.558Z,76.02
2018-12-16T03:55:26.593Z,75.70
2018-12-16T03:56:26.581Z,75.38
2018-12-16T03:57:26.543Z,75.28
2018-12-16T03:58:26.527Z,75.60
2018-12-16T03:59:26.523Z,75.81
2018-12-16T04:00:26.511Z,75.60
2018-12-16T04:01:26.545Z,75.81
2018-12-16T04:02:26.479Z,75.38
2018-12-16T04:03:26.477Z,75.70
2018-12-16T04:04:26.460Z,75.91
2018-12-16T04:05:26.462Z,75.70
2018-12-16T04:06:26.485Z,75.70
2018-12-16T04:07:26.535Z,75.81
2018-12-16T04:08:26.423Z,75.91
2018-12-16T04:09:26.416Z,75.70
2018-12-16T04:10:26.404Z,75.60
2018-12-16T04:11:26.456Z,76.02
2018-12-16T04:12:26.384Z,76.02
2018-12-16T04:13:26.385Z,75.91
2018-12-16T04:14:26.452Z,75.70
2018-12-16T04:15:26.350Z,75.60
2018-12-16T04:16:26.377Z,75.60
2018-12-16T04:17:26.336Z,76.02
2018-12-16T04:18:26.326Z,75.91
2018-12-16T04:19:26.320Z,75.70
2018-12-16T04:20:26.303Z,75.49
2018-12-16T04:21:26.326Z,76.02
2018-12-16T04:22:26.276Z,75.70
2018-12-16T04:23:27.520Z,75.91
2018-12-16T04:24:26.266Z,75.60
2018-12-16T04:25:26.321Z,76.12
2018-12-16T04:26:26.240Z,75.81
2018-12-16T04:27:26.225Z,75.91
2018-12-16T04:28:26.227Z,76.02
2018-12-16T04:29:26.204Z,75.95
2018-12-16T04:30:26.248Z,76.02
2018-12-16T04:31:26.208Z,76.12
2018-12-16T04:32:26.180Z,75.81
2018-12-16T04:33:26.171Z,76.02
2018-12-16T04:34:26.157Z,76.33
2018-12-16T04:35:26.177Z,76.02
2018-12-16T04:36:26.136Z,76.02
2018-12-16T04:37:26.140Z,75.60
2018-12-16T04:38:26.125Z,75.81
2018-12-16T04:39:26.125Z,76.12
2018-12-16T04:40:26.136Z,76.54
2018-12-16T04:41:26.085Z,76.12
2018-12-16T04:42:26.082Z,75.81
2018-12-16T04:43:26.108Z,76.02
2018-12-16T04:44:26.061Z,75.56
2018-12-16T04:45:26.090Z,75.67
2018-12-16T04:46:26.042Z,75.46
2018-12-16T04:47:26.025Z,75.88
2018-12-16T04:48:26.051Z,75.67
2018-12-16T04:49:26.015Z,75.56
2018-12-16T04:50:26.029Z,75.25
2018-12-16T04:51:25.991Z,75.25
2018-12-16T04:52:25.976Z,75.14
2018-12-16T04:53:25.974Z,75.25
2018-12-16T04:54:26.014Z,75.35
2018-12-16T04:55:25.976Z,75.56
2018-12-16T04:56:25.958Z,75.56
2018-12-16T04:57:25.926Z,75.25
2018-12-16T04:58:25.919Z,75.14
2018-12-16T04:59:25.905Z,75.35
2018-12-16T05:00:25.955Z,75.35
2018-12-16T05:01:25.887Z,75.11
2018-12-16T05:02:25.879Z,74.83
2018-12-16T05:03:25.867Z,75.21
2018-12-16T05:04:25.854Z,75.25
2018-12-16T05:05:25.877Z,75.14
2018-12-16T05:06:25.871Z,75.01
2018-12-16T05:07:25.819Z,75.11
2018-12-16T05:08:25.822Z,75.56
2018-12-16T05:09:25.815Z,75.63
2018-12-16T05:10:25.833Z,75.67
2018-12-16T05:11:25.792Z,75.56
2018-12-16T05:12:25.792Z,75.67
2018-12-16T05:13:25.761Z,75.84
2018-12-16T05:14:25.757Z,75.01
2018-12-16T05:15:25.779Z,75.42
2018-12-16T05:16:25.736Z,75.11
2018-12-16T05:17:25.760Z,75.01
2018-12-16T05:18:25.730Z,75.35
2018-12-16T05:19:25.700Z,75.14
2018-12-16T05:20:25.727Z,75.21
2018-12-16T05:21:25.684Z,75.11
2018-12-16T05:22:25.681Z,75.25
2018-12-16T05:23:25.670Z,75.42
2018-12-16T05:24:25.717Z,75.74
2018-12-16T05:25:25.648Z,75.63
2018-12-16T05:26:25.634Z,75.53
2018-12-16T05:27:25.616Z,75.21
2018-12-16T05:28:25.611Z,75.11
2018-12-16T05:29:25.634Z,75.11
2018-12-16T05:30:25.620Z,75.21
2018-12-16T05:31:25.585Z,74.79
2018-12-16T05:32:25.573Z,75.01
2018-12-16T05:33:25.580Z,75.11
2018-12-16T05:34:25.594Z,74.90
2018-12-16T05:35:25.555Z,75.21
2018-12-16T05:36:25.563Z,75.63
2018-12-16T05:37:25.524Z,75.53
2018-12-16T05:38:25.512Z,75.01
2018-12-16T05:39:25.542Z,75.21
2018-12-16T05:40:25.495Z,75.11
2018-12-16T05:41:25.481Z,75.21
2018-12-16T05:42:25.499Z,74.69
2018-12-16T05:43:25.464Z,75.01
2018-12-16T05:44:25.479Z,75.32
2018-12-16T05:45:25.440Z,75.21
2018-12-16T05:46:25.426Z,75.21
2018-12-16T05:47:25.425Z,75.11
2018-12-16T05:48:25.517Z,75.11
2018-12-16T05:49:25.437Z,75.74
2018-12-16T05:50:25.394Z,75.32
2018-12-16T05:51:25.390Z,75.32
2018-12-16T05:52:25.366Z,75.53
2018-12-16T05:53:25.361Z,75.21
2018-12-16T05:54:25.401Z,75.84
2018-12-16T05:55:25.353Z,75.84
2018-12-16T05:56:25.367Z,75.84
2018-12-16T05:57:26.319Z,76.26
2018-12-16T05:58:25.363Z,77.31
2018-12-16T05:59:25.335Z,78.05
2018-12-16T06:00:25.285Z,77.73
2018-12-16T06:01:25.278Z,78.47
2018-12-16T06:02:25.289Z,78.47
2018-12-16T06:03:25.263Z,78.05
2018-12-16T06:04:25.288Z,79.41
2018-12-16T06:05:25.302Z,80.18
2018-12-16T06:06:25.231Z,79.76
2018-12-16T06:07:25.219Z,80.49
2018-12-16T06:08:25.326Z,80.71
2018-12-16T06:09:25.237Z,81.76
2018-12-16T06:10:25.189Z,82.39
2018-12-16T06:11:25.183Z,82.81
2018-12-16T06:12:25.171Z,83.22
2018-12-16T06:13:25.158Z,83.12
2018-12-16T06:14:25.202Z,83.47
2018-12-16T06:15:25.140Z,84.52
2018-12-16T06:16:25.118Z,85.36
2018-12-16T06:17:25.115Z,85.89
2018-12-16T06:18:25.106Z,85.68
2018-12-16T06:19:25.153Z,85.89
2018-12-16T06:20:25.119Z,85.68
2018-12-16T06:21:25.082Z,85.82
2018-12-16T06:22:25.058Z,87.57
2018-12-16T06:23:25.090Z,88.66
2018-12-16T06:24:25.057Z,89.07
2018-12-16T06:25:25.037Z,88.97
2018-12-16T06:26:25.049Z,88.13
2018-12-16T06:27:25.014Z,88.24
2018-12-16T06:28:25.034Z,88.34
2018-12-16T06:29:25.005Z,88.55
2018-12-16T06:30:24.992Z,88.66
2018-12-16T06:31:24.980Z,88.13
2018-12-16T06:32:25.000Z,88.45
2018-12-16T06:33:25.000Z,88.45
2018-12-16T06:34:24.948Z,88.24
2018-12-16T06:35:24.932Z,87.50
2018-12-16T06:36:24.933Z,87.71
2018-12-16T06:37:24.919Z,87.60
2018-12-16T06:38:24.956Z,86.87
2018-12-16T06:39:24.952Z,86.55
2018-12-16T06:40:24.881Z,86.45
2018-12-16T06:41:24.871Z,86.35
2018-12-16T06:42:24.880Z,86.35
2018-12-16T06:43:24.881Z,85.89
2018-12-16T06:44:24.850Z,85.15
2018-12-16T06:45:24.861Z,85.36
2018-12-16T06:46:24.896Z,85.15
2018-12-16T06:47:24.893Z,85.47
2018-12-16T06:48:24.834Z,85.57
2018-12-16T06:49:24.839Z,85.99
2018-12-16T06:50:24.805Z,86.30
2018-12-16T06:51:24.812Z,87.71
2018-12-16T06:52:24.807Z,88.30
2018-12-16T06:53:24.795Z,88.97
2018-12-16T06:54:24.742Z,90.34
2018-12-16T06:55:24.731Z,90.02
2018-12-16T06:56:32.269Z,91.28
2018-12-16T06:57:24.783Z,92.38
2018-12-16T06:58:24.758Z,93.28
2018-12-16T06:59:24.699Z,93.85
2018-12-16T07:00:24.766Z,94.06
2018-12-16T07:01:24.681Z,94.17
2018-12-16T07:02:24.686Z,94.48
2018-12-16T07:03:24.724Z,95.32
2018-12-16T07:04:24.638Z,95.84
2018-12-16T07:05:24.648Z,95.32
2018-12-16T07:06:24.687Z,96.37
2018-12-16T07:07:24.649Z,96.20
2018-12-16T07:08:24.669Z,96.16
2018-12-16T07:09:24.683Z,97.15
2018-12-16T07:10:24.580Z,96.79
2018-12-16T07:11:24.597Z,96.94
2018-12-16T07:12:24.553Z,96.79
2018-12-16T07:13:24.579Z,96.94
2018-12-16T07:14:24.556Z,96.58
2018-12-16T07:15:24.529Z,96.73
2018-12-16T07:16:24.607Z,97.05
2018-12-16T07:17:24.534Z,96.79
2018-12-16T07:18:24.645Z,96.69
2018-12-16T07:19:24.500Z,96.79
2018-12-16T07:20:24.499Z,96.83
2018-12-16T07:21:24.529Z,96.69
2018-12-16T07:22:24.504Z,96.94
2018-12-16T07:23:24.466Z,96.73
2018-12-16T07:24:24.467Z,96.73
2018-12-16T07:25:24.439Z,96.51
2018-12-16T07:26:24.418Z,97.15
2018-12-16T07:27:24.500Z,96.73
2018-12-16T07:28:24.408Z,97.05
2018-12-16T07:29:24.418Z,97.05
2018-12-16T07:30:24.398Z,97.78
2018-12-16T07:31:24.374Z,97.67
2018-12-16T07:32:24.449Z,97.99
2018-12-16T07:33:24.347Z,98.10
2018-12-16T07:34:24.351Z,98.20
2018-12-16T07:35:24.339Z,98.41
2018-12-16T07:36:24.350Z,98.72
2018-12-16T07:37:24.382Z,98.94
2018-12-16T07:38:24.301Z,99.04
2018-12-16T07:39:24.323Z,99.51
2018-12-16T07:40:24.275Z,99.46
2018-12-16T07:41:24.282Z,99.04
2018-12-16T07:42:24.327Z,99.57
2018-12-16T07:43:24.276Z,99.82
2018-12-16T07:44:24.287Z,99.36
2018-12-16T07:45:24.261Z,99.46
2018-12-16T07:46:24.229Z,99.99
2018-12-16T07:47:24.288Z,99.78
2018-12-16T07:48:24.203Z,99.78
2018-12-16T07:49:24.288Z,99.99
2018-12-16T07:50:24.173Z,99.99
2018-12-16T07:51:24.184Z,99.99
2018-12-16T07:52:24.234Z,99.99
2018-12-16T07:53:24.183Z,99.99
2018-12-16T07:54:24.444Z,99.99
2018-12-16T07:55:24.183Z,99.99
2018-12-16T07:56:24.137Z,99.99
2018-12-16T07:57:24.186Z,99.99
2018-12-16T07:58:24.187Z,99.99
2018-12-16T07:59:24.096Z,99.99
2018-12-16T08:00:24.080Z,99.99
2018-12-16T08:01:24.158Z,99.99
2018-12-16T08:02:24.084Z,99.99
2018-12-16T08:03:24.040Z,99.99
2018-12-16T08:04:24.050Z,99.99
2018-12-16T08:05:24.063Z,99.99
2018-12-16T08:06:24.060Z,99.99
2018-12-16T08:07:24.039Z,99.99
2018-12-16T08:08:24.058Z,99.99
2018-12-16T08:10:40.174Z,99.99
2018-12-16T08:11:40.199Z,99.99
2018-12-16T08:12:40.180Z,99.99
2018-12-16T08:13:40.143Z,99.99
2018-12-16T08:14:40.138Z,99.99
2018-12-16T08:15:40.127Z,99.99
2018-12-16T08:16:40.302Z,99.99
2018-12-16T08:17:40.113Z,99.99
2018-12-16T08:18:40.088Z,99.99
2018-12-16T08:19:40.116Z,99.99
2018-12-16T08:20:40.131Z,99.99
2018-12-16T08:21:40.203Z,99.99
2018-12-16T08:22:40.153Z,99.99
2018-12-16T08:23:40.053Z,99.99
2018-12-16T08:24:40.033Z,99.99
2018-12-16T08:25:40.050Z,99.99
2018-12-16T08:26:40.057Z,99.99
2018-12-16T08:27:40.007Z,99.99
2018-12-16T08:28:39.991Z,99.99
2018-12-16T08:29:39.984Z,99.99
2018-12-16T08:30:39.984Z,99.99
2018-12-16T08:31:40.013Z,99.99
2018-12-16T08:32:39.987Z,99.99
2018-12-16T08:33:39.944Z,99.99
2018-12-16T08:34:39.928Z,99.99
2018-12-16T08:35:39.928Z,99.99
2018-12-16T08:36:39.954Z,99.99
2018-12-16T08:37:39.910Z,99.99
2018-12-16T08:38:39.970Z,99.99
2018-12-16T08:39:39.901Z,99.99
2018-12-16T08:40:39.874Z,99.99
2018-12-16T08:41:39.893Z,99.99
2018-12-16T08:42:39.848Z,99.99
2018-12-16T08:43:39.851Z,99.99
2018-12-16T08:44:39.846Z,99.99
2018-12-16T08:45:39.833Z,99.99
2018-12-16T08:46:40.057Z,99.99
2018-12-16T08:47:39.803Z,99.99
2018-12-16T08:48:39.804Z,99.99
2018-12-16T08:49:39.782Z,99.99
2018-12-16T08:50:39.776Z,99.99
2018-12-16T08:51:39.817Z,99.99
2018-12-16T08:52:39.747Z,99.99
2018-12-16T08:53:39.754Z,99.99
2018-12-16T08:54:39.762Z,99.99
2018-12-16T08:55:39.738Z,99.99
2018-12-16T08:56:39.750Z,99.99
2018-12-16T08:57:39.710Z,99.99
2018-12-16T08:58:39.804Z,99.99
2018-12-16T08:59:39.678Z,99.99
2018-12-16T09:00:39.718Z,99.99
2018-12-16T09:01:39.659Z,99.99
2018-12-16T09:02:39.821Z,99.99
2018-12-16T09:03:39.662Z,99.99
2018-12-16T09:04:39.631Z,99.99
2018-12-16T09:05:39.828Z,99.99
2018-12-16T09:06:39.697Z,99.99
2018-12-16T09:07:39.598Z,99.99
2018-12-16T09:08:39.607Z,99.99
2018-12-16T09:09:39.589Z,99.99
2018-12-16T09:10:39.636Z,99.99
2018-12-16T09:11:39.566Z,99.99
2018-12-16T09:12:39.562Z,99.99
2018-12-16T09:13:39.983Z,99.99
2018-12-16T09:14:39.540Z,99.99
2018-12-16T09:15:39.619Z,99.99
2018-12-16T09:16:39.499Z,99.99
2018-12-16T09:17:39.496Z,99.99
2018-12-16T09:18:39.550Z,99.99
2018-12-16T09:19:39.517Z,99.99
2018-12-16T09:20:39.546Z,99.99
2018-12-16T09:21:39.452Z,99.99
2018-12-16T09:22:39.556Z,99.99
2018-12-16T09:23:39.623Z,99.99
2018-12-16T09:24:39.432Z,99.99
2018-12-16T09:25:39.477Z,99.99
2018-12-16T09:26:39.421Z,99.99
2018-12-16T09:27:39.420Z,99.99
2018-12-16T09:28:39.409Z,99.99
2018-12-16T09:29:39.377Z,99.99
2018-12-16T09:30:39.436Z,99.99
2018-12-16T09:31:39.353Z,99.99
2018-12-16T09:32:48.310Z,99.99
2018-12-16T09:33:39.376Z,99.99
2018-12-16T09:34:39.377Z,99.99
2018-12-16T09:35:39.402Z,99.99
2018-12-16T09:36:39.527Z,99.99
2018-12-16T09:37:39.443Z,99.99
2018-12-16T09:38:39.365Z,99.99
2018-12-16T09:39:39.372Z,99.99
2018-12-16T09:40:39.353Z,99.99
2018-12-16T09:41:39.249Z,99.99
2018-12-16T09:42:39.242Z,99.99
2018-12-16T09:43:39.268Z,99.99
2018-12-16T09:44:39.226Z,99.99
2018-12-16T09:45:39.246Z,99.99
2018-12-16T09:46:39.199Z,99.99
2018-12-16T09:47:39.205Z,99.99
2018-12-16T09:48:39.199Z,99.99
2018-12-16T09:49:39.186Z,99.99
2018-12-16T09:50:39.195Z,99.99
2018-12-16T09:51:39.148Z,99.99
2018-12-16T09:52:39.185Z,99.99
2018-12-16T09:53:39.136Z,99.99
2018-12-16T09:54:44.242Z,99.99
2018-12-16T09:55:40.104Z,99.99
2018-12-16T09:56:39.102Z,99.99
2018-12-16T09:57:39.089Z,99.99
2018-12-16T09:58:39.076Z,99.99
2018-12-16T09:59:39.103Z,99.99
2018-12-16T10:00:39.100Z,99.99
2018-12-16T10:01:39.043Z,99.99
2018-12-16T10:02:39.042Z,99.99
2018-12-16T10:03:39.034Z,99.99
2018-12-16T10:04:39.059Z,99.99
2018-12-16T10:05:39.004Z,99.99
2018-12-16T10:06:39.035Z,99.99
2018-12-16T10:07:38.986Z,99.99
2018-12-16T10:08:39.000Z,99.99
2018-12-16T10:09:38.999Z,99.99
2018-12-16T10:10:38.955Z,99.99
2018-12-16T10:11:38.952Z,99.99
2018-12-16T10:12:38.983Z,99.99
2018-12-16T10:13:38.925Z,99.99
2018-12-16T10:14:38.950Z,99.99
2018-12-16T10:15:38.898Z,99.99
2018-12-16T10:16:38.901Z,99.99
2018-12-16T10:17:38.879Z,99.99
2018-12-16T10:18:38.915Z,99.99
2018-12-16T10:19:38.918Z,99.99
2018-12-16T10:20:38.863Z,99.99
2018-12-16T10:21:38.837Z,99.99
2018-12-16T10:22:38.832Z,99.99
2018-12-16T10:23:38.831Z,99.99
2018-12-16T10:24:38.856Z,99.99
2018-12-16T10:25:38.844Z,99.99
2018-12-16T10:26:38.797Z,99.99
2018-12-16T10:27:38.788Z,99.99
2018-12-16T10:28:38.883Z,99.99
2018-12-16T10:29:38.814Z,99.99
2018-12-16T10:30:38.754Z,99.99
2018-12-16T10:31:38.856Z,99.99
2018-12-16T10:32:38.735Z,99.99
2018-12-16T10:33:38.717Z,99.99
2018-12-16T10:34:38.747Z,99.99
2018-12-16T10:35:38.700Z,99.99
2018-12-16T10:36:38.696Z,99.99
2018-12-16T10:37:38.703Z,99.99
2018-12-16T10:38:47.266Z,99.99
2018-12-16T10:39:38.746Z,99.99
2018-12-16T10:40:38.680Z,99.99
2018-12-16T10:41:38.675Z,99.99
2018-12-16T10:42:38.647Z,99.99
2018-12-16T10:43:38.690Z,99.99
2018-12-16T10:44:38.695Z,99.99
2018-12-16T10:45:38.715Z,99.99
2018-12-16T10:46:38.608Z,99.99
2018-12-16T10:47:38.618Z,99.99
2018-12-16T10:48:38.663Z,99.99
2018-12-16T10:49:38.603Z,99.99
2018-12-16T10:50:38.966Z,99.99
2018-12-16T10:51:38.584Z,99.99
2018-12-16T10:52:38.603Z,99.99
2018-12-16T10:53:38.530Z,99.99
2018-12-16T10:54:38.525Z,99.99
2018-12-16T10:55:39.118Z,99.99
2018-12-16T10:56:39.111Z,99.99
2018-12-16T10:57:46.051Z,99.99
2018-12-16T10:58:38.522Z,99.99
2018-12-16T10:59:39.029Z,99.99
2018-12-16T11:00:40.641Z,99.99
2018-12-16T11:01:39.228Z,99.99
2018-12-16T11:02:38.427Z,99.99
2018-12-16T11:03:38.458Z,99.99
2018-12-16T11:04:38.410Z,99.99
2018-12-16T11:05:38.410Z,99.99
2018-12-16T11:06:38.391Z,99.99
2018-12-16T11:07:38.376Z,99.77
2018-12-16T11:08:38.623Z,99.99
2018-12-16T11:09:38.356Z,99.99
2018-12-16T11:10:38.351Z,99.99
2018-12-16T11:11:38.338Z,99.99
2018-12-16T11:12:38.330Z,99.93
2018-12-16T11:13:38.363Z,99.99
2018-12-16T11:14:38.310Z,99.99
2018-12-16T11:15:38.292Z,99.88
2018-12-16T11:16:38.280Z,99.57
2018-12-16T11:17:38.272Z,99.46
2018-12-16T11:18:38.305Z,99.57
2018-12-16T11:19:38.807Z,99.46
2018-12-16T11:20:38.242Z,99.41
2018-12-16T11:21:38.233Z,99.46
2018-12-16T11:22:38.278Z,98.83
2018-12-16T11:23:38.425Z,99.57
2018-12-16T11:24:38.200Z,99.25
2018-12-16T11:25:38.218Z,99.98
2018-12-16T11:26:38.243Z,99.40
2018-12-16T11:27:38.169Z,98.94
2018-12-16T11:28:38.193Z,99.98
2018-12-16T11:29:38.151Z,99.15
2018-12-16T11:30:38.136Z,99.15
2018-12-16T11:31:38.161Z,99.04
2018-12-16T11:32:38.112Z,99.04
2018-12-16T11:33:38.148Z,98.72
2018-12-16T11:34:38.105Z,99.10
2018-12-16T11:35:38.092Z,99.25
2018-12-16T11:36:38.078Z,99.35
2018-12-16T11:37:38.113Z,99.04
2018-12-16T11:38:38.088Z,99.04
2018-12-16T11:39:38.043Z,98.21
2018-12-16T11:40:38.031Z,99.25
2018-12-16T11:41:38.022Z,98.94
2018-12-16T11:42:38.012Z,99.15
2018-12-16T11:43:38.070Z,99.35
2018-12-16T11:44:37.991Z,99.15
2018-12-16T11:45:37.989Z,99.04
2018-12-16T11:46:37.970Z,99.00
2018-12-16T11:47:37.963Z,99.04
2018-12-16T11:48:37.997Z,98.68
2018-12-16T11:49:37.983Z,99.41
2018-12-16T11:50:37.946Z,98.52
2018-12-16T11:51:38.295Z,99.00
2018-12-16T11:52:37.910Z,99.00
2018-12-16T11:53:37.974Z,98.79
2018-12-16T11:54:37.923Z,99.35
2018-12-16T11:55:45.448Z,99.00
2018-12-16T11:56:38.032Z,99.10
2018-12-16T11:57:37.861Z,98.05
2018-12-16T11:58:37.959Z,98.52
2018-12-16T11:59:37.878Z,98.41
2018-12-16T12:00:37.850Z,98.58
2018-12-16T12:01:37.837Z,98.47
2018-12-16T12:02:37.858Z,97.74
2018-12-16T12:03:37.864Z,97.85
2018-12-16T12:04:37.910Z,97.85
2018-12-16T12:05:37.807Z,98.05
2018-12-16T12:06:37.784Z,98.16
2018-12-16T12:07:37.816Z,97.85
2018-12-16T12:08:37.810Z,98.05
2018-12-16T12:09:37.760Z,97.85
2018-12-16T12:10:37.768Z,97.63
2018-12-16T12:11:37.750Z,97.85
2018-12-16T12:12:37.728Z,97.85
2018-12-16T12:13:39.543Z,97.42
2018-12-16T12:14:37.880Z,97.32
2018-12-16T12:15:37.718Z,97.32
2018-12-16T12:16:37.678Z,97.63
2018-12-16T12:17:45.238Z,97.63
2018-12-16T12:18:37.723Z,97.53
2018-12-16T12:19:37.643Z,97.78
2018-12-16T12:20:37.771Z,97.63
2018-12-16T12:21:37.628Z,97.63
2018-12-16T12:22:37.609Z,97.32
2018-12-16T12:23:37.606Z,97.32
2018-12-16T12:25:53.926Z,97.53
2018-12-16T12:26:55.531Z,97.63
2018-12-16T12:27:55.480Z,97.32
2018-12-16T12:28:55.522Z,97.47
2018-12-16T12:29:56.548Z,98.21
2018-12-16T12:30:53.738Z,97.99
2018-12-16T12:31:55.487Z,97.74
2018-12-16T12:32:55.517Z,98.21
2018-12-16T12:33:55.474Z,97.95
2018-12-16T12:34:55.535Z,98.52
2018-12-16T12:35:55.483Z,98.52
2018-12-16T12:36:54.092Z,99.04
2018-12-16T12:37:55.507Z,98.72
2018-12-16T12:38:55.488Z,98.94
2018-12-16T12:39:56.580Z,99.04
2018-12-16T12:40:55.673Z,98.62
2018-12-16T12:41:55.712Z,98.62
2018-12-16T12:42:53.933Z,98.31
2018-12-16T12:43:55.518Z,99.15
2018-12-16T12:44:56.498Z,98.94
2018-12-16T12:45:55.865Z,99.46
2018-12-16T12:46:55.495Z,99.25
2018-12-16T12:47:55.481Z,98.72
2018-12-16T12:48:55.499Z,99.04
2018-12-16T12:49:55.508Z,99.35
2018-12-16T12:50:56.551Z,99.35
2018-12-16T12:51:55.499Z,99.46
2018-12-16T12:52:55.496Z,99.15
2018-12-16T12:53:55.497Z,99.15
2018-12-16T12:54:55.481Z,99.35